Huvudsida
METAR-TAF:

METAR-TAF

Flygplatser :

Mehrabads flygplats

Teheran, Iran

latitud: 35-41N, longitud: 051-21E, höjd: 1204 m

Aktuellt väderrapport

Denna rapport gjordes för 26 minuter sedan, klockan 14:30 UTC
Vind 12 kt från väst/sydväst
Temperatur 33°C
Fuktighet 20%
Tryck 1012 hPa
Sikt: 8000 m
Få moln på en höjd av 4000 ft

METAR: OIII 201430Z 24012KT 8000 FEW040 33/07 Q1012 A2989

Tid: 19:26 (14:56 UTC)

Väderprognos

Denna rapport gjordes för 3 timmar och 46 minuter sedan, klockan 11:10 UTC
Prognos gäller från 20 kl. 12 UTC till 21 kl. 18 UTC
Vind 8 kt från väst/sydväst
Sikt: 8000 m
Få moln på en höjd av 4000 ft
Temporärt
från 20 kl. 14 UTC till 20 kl. 21 UTC
Vind 16 kt från väst/nordväst i byarna ända upp till 25 kt
Sikt: 4000 m
sand
Sannolikhet 40%
från 20 kl. 15 UTC till 20 kl. 18 UTC
Sikt: 1500 m
sand

TAF: OIII 201110Z 2012/2118 24004MPS 8000 FEW040 TEMPO 2014/2021 30008G13MPS 4000 SA PROB40 2015/2018 1500 SA

Aktuella väderrapporter och prognoser från 4000 flygplatser (METAR- och TAF-rapporter).

De tillgängliga stationerna syns som gula och röda prickar på kartan.

För musen över prickarna för att se namnen på stationerna.

Klicka sedan för att få väderrapporter och prognoser.

För att ändra kartan: Klicka på de gröna knapparna med ett svart kors på för att zooma in; den gröna knappen med ett streck på för att zooma ut; eller på de gröna pilarna för angränsande kartor.


METAR-TAF: